aviador You're here:

LFBL Decoded Metar

LIMOGES in FRANCE
Report Time2018-02-21 05:00:00
UTC Time2018-02-21 05:23:24
Flight Rules mvfr MVFR
Wind020° at 09 kt
W.Decomp.*RWY 03: 8.9 kt HW 1.4 kt LCW
W.Rank020° ranks 7
Current wind is above 020° avg. (6.1)
Visibility7000 m
Phenomena:N/A
Clouds:N/A
Expected CloudBase > 800 ft AGL from Temp-Dew spread
CeilingNone
Temp00°C (ISA -12)
Dew Point-2°C (87% RH)
AAT-5.5°C
QNH1015 hPa
Density Alt-180 ft
Elevation1,319 ft
Report Wrong Elevation
Raw Report
LFBL 210500Z AUTO 02009KT 7000 NSC M00/M02 Q1015 NOSIG=

Extra information for LFBL:More info

Metar Taf Metar & Taf Last 4 Metars F.Rules Stats Wind Profile Meteogram Temp Stats Airport Information Weather charts Add Link Nearby VenuesMetar ALERT Operation Metar Decoded Social comments